Terminal Aerodrome Forecast
Issued by NWS

Home | Current Version | Previous Version | Text Only | Print | Product List | Glossary On
Versions: 1 2 3 4 5 6 7 8 9 10 11 12 13 14 15
000
FTUS42 KILM 221700
TAFCRE
TAF
KCRE 221727Z 2218/2318 35006KT P6SM OVC005
      TEMPO 2219/2223 3SM -RA BR OVC007
     FM222300 02005KT 2SM RA BR OVC004
     FM230300 05003KT 3SM BR VCSH OVC003
     FM231500 16005KT P6SM VCSH BKN006 OVC035=

USA.gov is the U.S. government's official web portal to all federal, state and local government web resources and services.